createdAt,value
2018-04-12T00:00:01.524Z,84.50
2018-04-12T00:00:34.784Z,84.40
2018-04-12T00:01:08.072Z,83.80
2018-04-12T00:01:41.342Z,84.60
2018-04-12T00:02:14.628Z,84.40
2018-04-12T00:02:47.898Z,84.50
2018-04-12T00:03:21.199Z,84.50
2018-04-12T00:03:54.469Z,84.00
2018-04-12T00:04:27.719Z,84.40
2018-04-12T00:05:01.754Z,85.00
2018-04-12T00:05:35.023Z,84.40
2018-04-12T00:06:08.322Z,84.40
2018-04-12T00:06:41.620Z,83.50
2018-04-12T00:07:14.891Z,84.30
2018-04-12T00:07:48.152Z,84.70
2018-04-12T00:08:21.420Z,84.00
2018-04-12T00:08:54.689Z,84.40
2018-04-12T00:09:27.952Z,84.60
2018-04-12T00:10:01.985Z,85.00
2018-04-12T00:10:35.253Z,84.50
2018-04-12T00:11:08.529Z,84.50
2018-04-12T00:11:42.561Z,83.60
2018-04-12T00:12:15.817Z,83.50
2018-04-12T00:12:49.085Z,84.00
2018-04-12T00:13:23.120Z,83.80
2018-04-12T00:13:56.379Z,83.90
2018-04-12T00:14:29.665Z,84.20
2018-04-12T00:15:02.936Z,84.80
2018-04-12T00:15:36.196Z,85.10
2018-04-12T00:16:10.234Z,84.50
2018-04-12T00:16:43.510Z,84.70
2018-04-12T00:17:16.773Z,84.60
2018-04-12T00:17:50.039Z,85.20
2018-04-12T00:18:23.303Z,85.10
2018-04-12T00:18:56.569Z,84.60
2018-04-12T00:19:29.836Z,85.10
2018-04-12T00:20:03.108Z,84.40
2018-04-12T00:20:36.393Z,84.40
2018-04-12T00:21:09.639Z,84.60
2018-04-12T00:21:42.926Z,84.30
2018-04-12T00:22:16.217Z,84.00
2018-04-12T00:22:49.491Z,83.70
2018-04-12T00:23:22.752Z,84.10
2018-04-12T00:23:56.032Z,84.70
2018-04-12T00:24:29.284Z,84.20
2018-04-12T00:25:03.341Z,85.30
2018-04-12T00:25:36.609Z,85.20
2018-04-12T00:26:09.873Z,85.00
2018-04-12T00:26:43.135Z,84.60
2018-04-12T00:27:16.422Z,84.10
2018-04-12T00:27:50.456Z,84.10
2018-04-12T00:28:23.725Z,84.10
2018-04-12T00:28:56.992Z,84.90
2018-04-12T00:29:30.254Z,84.20
2018-04-12T00:30:03.533Z,84.10
2018-04-12T00:30:37.573Z,84.40
2018-04-12T00:31:10.856Z,84.40
2018-04-12T00:31:44.120Z,84.90
2018-04-12T00:32:17.429Z,84.50
2018-04-12T00:32:50.693Z,84.00
2018-04-12T00:33:23.960Z,84.70
2018-04-12T00:33:57.216Z,84.80
2018-04-12T00:34:30.488Z,84.40
2018-04-12T00:35:03.753Z,84.60
2018-04-12T00:35:37.007Z,84.50
2018-04-12T00:36:10.267Z,84.50
2018-04-12T00:36:43.540Z,84.50
2018-04-12T00:37:16.829Z,84.20
2018-04-12T00:37:50.133Z,84.00
2018-04-12T00:38:23.491Z,83.50
2018-04-12T00:38:56.741Z,84.30
2018-04-12T00:39:30.013Z,83.80
2018-04-12T00:40:04.081Z,84.50
2018-04-12T00:40:37.361Z,84.60
2018-04-12T00:41:10.621Z,83.80
2018-04-12T00:41:43.888Z,84.20
2018-04-12T00:42:17.943Z,83.70
2018-04-12T00:42:51.991Z,84.20
2018-04-12T00:43:25.261Z,84.10
2018-04-12T00:43:58.536Z,84.20
2018-04-12T00:44:31.806Z,83.80
2018-04-12T00:45:05.069Z,83.70
2018-04-12T00:45:39.110Z,83.80
2018-04-12T00:46:12.366Z,83.80
2018-04-12T00:46:45.629Z,83.90
2018-04-12T00:47:19.667Z,83.90
2018-04-12T00:47:52.947Z,84.10
2018-04-12T00:48:26.549Z,84.30
2018-04-12T00:48:59.803Z,83.60
2018-04-12T00:49:33.311Z,84.30
2018-04-12T00:50:06.607Z,84.10
2018-04-12T00:50:39.877Z,84.50
2018-04-12T00:51:13.373Z,84.40
2018-04-12T00:51:46.654Z,83.50
2018-04-12T00:52:19.912Z,84.20
2018-04-12T00:52:53.182Z,83.60
2018-04-12T00:53:38.332Z,83.50
2018-04-12T00:54:11.610Z,83.70
2018-04-12T00:54:44.881Z,83.30
2018-04-12T00:55:18.401Z,84.00
2018-04-12T00:55:51.700Z,84.00
2018-04-12T00:56:24.976Z,83.40
2018-04-12T00:56:58.255Z,83.80
2018-04-12T00:57:31.535Z,84.00
2018-04-12T00:58:04.810Z,83.20
2018-04-12T00:58:38.404Z,83.70
2018-04-12T00:59:11.683Z,84.50
2018-04-12T00:59:44.970Z,83.60
2018-04-12T01:00:18.233Z,83.30
2018-04-12T01:00:51.499Z,84.20
2018-04-12T01:01:24.770Z,84.20
2018-04-12T01:01:58.046Z,83.60
2018-04-12T01:02:31.317Z,83.80
2018-04-12T01:03:04.596Z,84.10
2018-04-12T01:03:37.867Z,83.80
2018-04-12T01:04:11.141Z,83.50
2018-04-12T01:04:45.185Z,84.50
2018-04-12T01:05:18.434Z,84.50
2018-04-12T01:05:51.700Z,84.00
2018-04-12T01:06:24.974Z,84.90
2018-04-12T01:06:59.007Z,83.90
2018-04-12T01:07:32.281Z,83.90
2018-04-12T01:08:05.579Z,84.50
2018-04-12T01:08:38.848Z,84.30
2018-04-12T01:09:12.108Z,83.90
2018-04-12T01:09:45.388Z,83.70
2018-04-12T01:10:18.652Z,83.90
2018-04-12T01:10:52.679Z,83.10
2018-04-12T01:11:25.962Z,83.10
2018-04-12T01:11:59.230Z,84.20
2018-04-12T01:12:32.504Z,84.00
2018-04-12T01:13:06.550Z,83.20
2018-04-12T01:13:39.820Z,83.30
2018-04-12T01:14:13.085Z,83.70
2018-04-12T01:14:46.369Z,83.90
2018-04-12T01:15:19.640Z,84.00
2018-04-12T01:15:52.911Z,84.10
2018-04-12T01:16:26.182Z,84.00
2018-04-12T01:16:59.456Z,83.90
2018-04-12T01:17:32.728Z,83.60
2018-04-12T01:18:06.780Z,83.70
2018-04-12T01:18:40.077Z,83.80
2018-04-12T01:19:13.356Z,83.80
2018-04-12T01:19:46.634Z,84.10
2018-04-12T01:20:20.140Z,83.90
2018-04-12T01:20:53.414Z,83.80
2018-04-12T01:21:26.694Z,83.50
2018-04-12T01:21:59.971Z,83.80
2018-04-12T01:22:33.233Z,83.60
2018-04-12T01:23:06.511Z,83.50
2018-04-12T01:23:39.805Z,84.50
2018-04-12T01:24:13.079Z,84.00
2018-04-12T01:24:46.361Z,83.50
2018-04-12T01:25:19.643Z,84.10
2018-04-12T01:25:52.913Z,84.10
2018-04-12T01:26:26.190Z,84.10
2018-04-12T01:26:59.469Z,83.80
2018-04-12T01:27:32.749Z,84.60
2018-04-12T01:28:06.016Z,84.00
2018-04-12T01:28:39.289Z,83.90
2018-04-12T01:29:12.568Z,84.10
2018-04-12T01:29:46.604Z,84.10
2018-04-12T01:30:19.880Z,84.10
2018-04-12T01:30:53.148Z,84.50
2018-04-12T01:31:26.423Z,84.10
2018-04-12T01:31:59.705Z,84.50
2018-04-12T01:32:32.976Z,84.90
2018-04-12T01:33:15.193Z,84.20
2018-04-12T01:33:48.467Z,84.30
2018-04-12T01:34:21.739Z,84.10
2018-04-12T01:34:55.031Z,85.20
2018-04-12T01:35:28.306Z,84.10
2018-04-12T01:36:01.595Z,84.20
2018-04-12T01:36:34.869Z,83.50
2018-04-12T01:37:08.134Z,83.60
2018-04-12T01:37:41.408Z,84.90
2018-04-12T01:38:14.676Z,85.50
2018-04-12T01:38:47.952Z,85.40
2018-04-12T01:39:21.235Z,84.40
2018-04-12T01:39:54.504Z,85.50
2018-04-12T01:40:27.773Z,84.30
2018-04-12T01:41:01.041Z,85.00
2018-04-12T01:41:35.081Z,84.20
2018-04-12T01:42:09.119Z,83.80
2018-04-12T01:42:43.173Z,82.90
2018-04-12T01:43:16.453Z,83.30
2018-04-12T01:43:49.725Z,84.50
2018-04-12T01:44:23.003Z,84.50
2018-04-12T01:44:56.285Z,85.30
2018-04-12T01:45:29.579Z,84.00
2018-04-12T01:46:02.852Z,82.90
2018-04-12T01:46:36.136Z,83.60
2018-04-12T01:47:09.404Z,84.50
2018-04-12T01:47:42.693Z,83.40
2018-04-12T01:48:15.964Z,83.80
2018-04-12T01:48:49.232Z,83.80
2018-04-12T01:49:22.517Z,83.90
2018-04-12T01:49:55.789Z,83.80
2018-04-12T01:50:29.076Z,84.60
2018-04-12T01:51:02.365Z,84.90
2018-04-12T01:51:35.632Z,84.30
2018-04-12T01:52:09.113Z,84.30
2018-04-12T01:52:42.393Z,83.70
2018-04-12T01:53:15.673Z,83.90
2018-04-12T01:53:48.933Z,83.80
2018-04-12T01:54:23.000Z,83.70
2018-04-12T01:54:56.280Z,83.80
2018-04-12T01:55:29.558Z,82.10
2018-04-12T01:56:02.854Z,82.70
2018-04-12T01:56:36.420Z,82.10
2018-04-12T01:57:09.703Z,83.10
2018-04-12T01:57:42.990Z,81.90
2018-04-12T01:58:16.274Z,82.70
2018-04-12T01:58:49.545Z,82.90
2018-04-12T01:59:23.598Z,82.00
2018-04-12T01:59:56.882Z,82.00
2018-04-12T02:00:30.162Z,81.40
2018-04-12T02:01:03.447Z,81.30
2018-04-12T02:01:36.717Z,83.20
2018-04-12T02:02:10.009Z,83.10
2018-04-12T02:02:43.289Z,83.00
2018-04-12T02:03:16.572Z,81.40
2018-04-12T02:03:49.849Z,80.70
2018-04-12T02:04:23.129Z,80.20
2018-04-12T02:04:56.424Z,80.20
2018-04-12T02:05:29.721Z,80.20
2018-04-12T02:06:03.314Z,82.00
2018-04-12T02:06:36.592Z,83.60
2018-04-12T02:07:09.863Z,82.70
2018-04-12T02:07:43.145Z,83.70
2018-04-12T02:08:17.180Z,82.20
2018-04-12T02:08:50.461Z,82.20
2018-04-12T02:09:23.724Z,82.40
2018-04-12T02:09:57.024Z,82.70
2018-04-12T02:10:31.080Z,82.60
2018-04-12T02:11:04.375Z,82.50
2018-04-12T02:11:37.635Z,83.30
2018-04-12T02:12:10.917Z,82.80
2018-04-12T02:12:44.964Z,82.90
2018-04-12T02:13:19.020Z,84.30
2018-04-12T02:13:52.343Z,84.30
2018-04-12T02:14:26.404Z,85.00
2018-04-12T02:14:59.704Z,84.90
2018-04-12T02:15:32.989Z,85.20
2018-04-12T02:16:06.254Z,84.50
2018-04-12T02:16:39.530Z,84.40
2018-04-12T02:17:12.822Z,84.50
2018-04-12T02:17:46.092Z,83.60
2018-04-12T02:18:19.367Z,83.90
2018-04-12T02:18:52.666Z,84.30
2018-04-12T02:19:25.915Z,84.40
2018-04-12T02:19:59.193Z,84.80
2018-04-12T02:20:32.472Z,85.50
2018-04-12T02:21:05.748Z,83.30
2018-04-12T02:21:39.028Z,84.00
2018-04-12T02:22:12.304Z,84.60
2018-04-12T02:22:45.600Z,85.90
2018-04-12T02:23:18.855Z,83.10
2018-04-12T02:23:52.133Z,84.00
2018-04-12T02:24:25.421Z,84.60
2018-04-12T02:24:58.706Z,83.90
2018-04-12T02:25:31.993Z,83.20
2018-04-12T02:26:05.485Z,84.40
2018-04-12T02:26:38.772Z,83.50
2018-04-12T02:27:12.053Z,84.50
2018-04-12T02:27:46.111Z,84.50
2018-04-12T02:28:19.376Z,84.70
2018-04-12T02:28:52.700Z,85.20
2018-04-12T02:29:26.705Z,85.90
2018-04-12T02:29:59.999Z,85.90
2018-04-12T02:30:33.304Z,83.50
2018-04-12T02:31:06.586Z,83.70
2018-04-12T02:31:40.624Z,82.50
2018-04-12T02:32:13.904Z,82.70
2018-04-12T02:32:47.188Z,85.10
2018-04-12T02:33:20.465Z,85.20
2018-04-12T02:33:53.748Z,84.80
2018-04-12T02:34:27.029Z,83.10
2018-04-12T02:35:00.328Z,83.60
2018-04-12T02:35:33.591Z,83.30
2018-04-12T02:36:06.856Z,84.30
2018-04-12T02:36:40.129Z,84.80
2018-04-12T02:37:13.400Z,84.40
2018-04-12T02:37:47.441Z,84.60
2018-04-12T02:38:20.705Z,84.60
2018-04-12T02:38:53.997Z,85.40
2018-04-12T02:39:27.269Z,84.70
2018-04-12T02:40:01.321Z,84.20
2018-04-12T02:40:34.610Z,84.10
2018-04-12T02:41:07.884Z,84.40
2018-04-12T02:41:41.929Z,85.20
2018-04-12T02:42:15.210Z,85.30
2018-04-12T02:42:48.470Z,85.20
2018-04-12T02:43:21.731Z,85.10
2018-04-12T02:43:55.004Z,85.40
2018-04-12T02:44:29.045Z,84.30
2018-04-12T02:45:02.334Z,84.60
2018-04-12T02:45:35.608Z,84.10
2018-04-12T02:46:08.914Z,85.10
2018-04-12T02:46:42.945Z,85.30
2018-04-12T02:47:16.976Z,85.90
2018-04-12T02:47:50.260Z,85.90
2018-04-12T02:48:23.545Z,86.40
2018-04-12T02:48:56.815Z,85.40
2018-04-12T02:49:30.090Z,85.10
2018-04-12T02:50:03.373Z,85.90
2018-04-12T02:50:36.670Z,84.60
2018-04-12T02:51:09.953Z,85.00
2018-04-12T02:51:43.236Z,87.00
2018-04-12T02:52:16.513Z,87.00
2018-04-12T02:52:49.825Z,85.10
2018-04-12T02:53:23.399Z,86.50
2018-04-12T02:53:56.685Z,86.80
2018-04-12T02:54:29.955Z,86.70
2018-04-12T02:55:03.237Z,86.00
2018-04-12T02:55:36.500Z,84.40
2018-04-12T02:56:09.795Z,84.20
2018-04-12T02:56:43.076Z,84.70
2018-04-12T02:57:16.348Z,85.80
2018-04-12T02:57:49.650Z,86.70
2018-04-12T02:58:22.923Z,86.70
2018-04-12T02:58:56.193Z,86.20
2018-04-12T02:59:29.473Z,87.00
2018-04-12T03:00:02.961Z,86.30
2018-04-12T03:00:37.005Z,86.80
2018-04-12T03:01:11.048Z,86.30
2018-04-12T03:01:44.608Z,86.40
2018-04-12T03:02:17.840Z,86.70
2018-04-12T03:02:51.116Z,86.40
2018-04-12T03:03:24.397Z,86.00
2018-04-12T03:03:57.669Z,86.00
2018-04-12T03:04:30.942Z,85.90
2018-04-12T03:05:04.217Z,87.10
2018-04-12T03:05:37.484Z,87.30
2018-04-12T03:06:10.763Z,84.20
2018-04-12T03:06:44.049Z,85.60
2018-04-12T03:07:17.322Z,86.00
2018-04-12T03:07:50.601Z,87.50
2018-04-12T03:08:23.877Z,88.60
2018-04-12T03:08:57.157Z,85.40
2018-04-12T03:09:30.437Z,86.40
2018-04-12T03:10:03.705Z,87.30
2018-04-12T03:10:36.984Z,86.80
2018-04-12T03:11:10.269Z,85.30
2018-04-12T03:11:43.598Z,86.30
2018-04-12T03:12:16.868Z,87.30
2018-04-12T03:12:50.148Z,86.40
2018-04-12T03:13:23.422Z,87.20
2018-04-12T03:13:56.688Z,86.70
2018-04-12T03:14:29.956Z,85.60
2018-04-12T03:15:03.239Z,86.80
2018-04-12T03:15:36.509Z,85.60
2018-04-12T03:16:09.793Z,87.10
2018-04-12T03:16:43.082Z,86.80
2018-04-12T03:17:16.374Z,87.00
2018-04-12T03:17:49.649Z,87.10
2018-04-12T03:18:22.918Z,86.80
2018-04-12T03:18:56.192Z,87.30
2018-04-12T03:19:29.469Z,85.70
2018-04-12T03:20:02.762Z,86.60
2018-04-12T03:20:36.041Z,86.10
2018-04-12T03:21:09.324Z,86.90
2018-04-12T03:21:42.602Z,86.20
2018-04-12T03:22:15.905Z,86.40
2018-04-12T03:22:49.179Z,85.90
2018-04-12T03:23:22.458Z,85.50
2018-04-12T03:23:56.056Z,85.20
2018-04-12T03:24:29.346Z,86.20
2018-04-12T03:25:02.623Z,86.10
2018-04-12T03:25:35.960Z,87.70
2018-04-12T03:26:09.242Z,87.60
2018-04-12T03:26:42.504Z,87.90
2018-04-12T03:27:15.800Z,87.40
2018-04-12T03:27:49.064Z,87.60
2018-04-12T03:28:22.354Z,86.90
2018-04-12T03:28:55.636Z,86.50
2018-04-12T03:29:28.924Z,86.50
2018-04-12T03:30:02.199Z,86.80
2018-04-12T03:30:35.464Z,87.70
2018-04-12T03:31:09.508Z,87.30
2018-04-12T03:31:42.784Z,87.20
2018-04-12T03:32:16.057Z,87.00
2018-04-12T03:32:49.313Z,87.10
2018-04-12T03:33:22.596Z,86.50
2018-04-12T03:33:55.874Z,85.90
2018-04-12T03:34:29.177Z,87.20
2018-04-12T03:35:02.450Z,87.00
2018-04-12T03:35:35.737Z,86.50
2018-04-12T03:36:09.014Z,87.30
2018-04-12T03:36:42.284Z,87.80
2018-04-12T03:37:15.568Z,86.40
2018-04-12T03:37:48.863Z,87.30
2018-04-12T03:38:22.141Z,86.40
2018-04-12T03:38:55.408Z,87.20
2018-04-12T03:39:28.693Z,87.40
2018-04-12T03:40:01.974Z,87.80
2018-04-12T03:40:35.254Z,87.20
2018-04-12T03:41:08.769Z,86.70
2018-04-12T03:41:42.114Z,87.20
2018-04-12T03:42:15.522Z,87.00
2018-04-12T03:42:48.772Z,87.70
2018-04-12T03:43:22.056Z,87.70
2018-04-12T03:43:55.423Z,87.50
2018-04-12T03:44:28.700Z,87.20
2018-04-12T03:45:01.986Z,87.30
2018-04-12T03:45:35.257Z,87.00
2018-04-12T03:46:09.301Z,88.00
2018-04-12T03:46:43.343Z,87.00
2018-04-12T03:47:17.390Z,86.90
2018-04-12T03:47:50.667Z,86.80
2018-04-12T03:48:24.168Z,87.30
2018-04-12T03:48:57.445Z,87.70
2018-04-12T03:49:30.729Z,87.20
2018-04-12T03:50:04.099Z,87.70
2018-04-12T03:50:37.355Z,87.30
2018-04-12T03:51:10.576Z,87.40
2018-04-12T03:51:44.072Z,86.70
2018-04-12T03:52:17.341Z,86.70
2018-04-12T03:52:50.609Z,86.90
2018-04-12T03:53:24.665Z,87.30
2018-04-12T03:53:58.752Z,87.50
2018-04-12T03:54:32.792Z,87.90
2018-04-12T03:55:06.076Z,87.90
2018-04-12T03:55:39.340Z,87.60
2018-04-12T03:56:12.616Z,87.70
2018-04-12T03:56:45.890Z,87.90
2018-04-12T03:57:19.176Z,87.50
2018-04-12T03:57:52.452Z,87.60
2018-04-12T03:58:25.724Z,88.30
2018-04-12T03:58:59.015Z,88.00
2018-04-12T03:59:32.284Z,87.50
2018-04-12T04:00:05.564Z,87.90
2018-04-12T04:00:38.836Z,87.60
2018-04-12T04:01:12.872Z,88.30
2018-04-12T04:01:46.166Z,88.30
2018-04-12T04:02:19.432Z,87.60
2018-04-12T04:02:52.709Z,87.80
2018-04-12T04:03:25.982Z,87.80
2018-04-12T04:03:59.277Z,87.50
2018-04-12T04:04:32.576Z,87.50
2018-04-12T04:05:05.836Z,87.70
2018-04-12T04:05:39.130Z,87.60
2018-04-12T04:06:12.397Z,87.80
2018-04-12T04:06:46.433Z,86.90
2018-04-12T04:07:19.788Z,86.90
2018-04-12T04:07:53.024Z,86.80
2018-04-12T04:08:26.320Z,87.40
2018-04-12T04:08:59.597Z,87.30
2018-04-12T04:09:32.874Z,87.40
2018-04-12T04:10:06.149Z,86.70
2018-04-12T04:10:39.444Z,87.50
2018-04-12T04:11:12.719Z,87.00
2018-04-12T04:11:46.737Z,87.00
2018-04-12T04:12:20.004Z,87.10
2018-04-12T04:12:53.278Z,86.60
2018-04-12T04:13:26.557Z,86.30
2018-04-12T04:14:00.217Z,85.90
2018-04-12T04:14:54.264Z,86.90
2018-04-12T04:15:39.335Z,87.20
2018-04-12T04:16:24.377Z,87.10
2018-04-12T04:17:09.542Z,86.70
2018-04-12T04:17:54.672Z,86.50
2018-04-12T04:18:39.788Z,87.90
2018-04-12T04:19:24.938Z,86.30
2018-04-12T04:20:10.929Z,86.90
2018-04-12T04:20:56.870Z,87.40
2018-04-12T04:21:30.141Z,87.30
2018-04-12T04:22:03.413Z,86.70
2018-04-12T04:22:37.456Z,87.50
2018-04-12T04:23:10.734Z,87.50
2018-04-12T04:23:43.992Z,87.70
2018-04-12T04:24:17.287Z,87.10
2018-04-12T04:24:50.574Z,86.50
2018-04-12T04:25:24.621Z,86.80
2018-04-12T04:25:57.889Z,86.70
2018-04-12T04:26:31.164Z,86.10
2018-04-12T04:27:04.444Z,86.10
2018-04-12T04:27:37.719Z,86.30
2018-04-12T04:28:10.990Z,85.90
2018-04-12T04:28:44.260Z,85.50
2018-04-12T04:29:17.544Z,85.70
2018-04-12T04:29:51.601Z,85.50
2018-04-12T04:30:24.877Z,85.50
2018-04-12T04:30:58.161Z,86.20
2018-04-12T04:31:31.433Z,86.10
2018-04-12T04:32:04.704Z,85.80
2018-04-12T04:32:37.970Z,86.50
2018-04-12T04:33:11.239Z,86.40
2018-04-12T04:33:44.550Z,86.50
2018-04-12T04:34:17.821Z,86.10
2018-04-12T04:34:51.426Z,85.70
2018-04-12T04:35:24.694Z,86.40
2018-04-12T04:35:57.990Z,86.20
2018-04-12T04:36:31.279Z,86.30
2018-04-12T04:37:04.545Z,86.20
2018-04-12T04:37:37.861Z,86.20
2018-04-12T04:38:11.122Z,86.40
2018-04-12T04:38:44.413Z,86.40
2018-04-12T04:39:17.694Z,86.50
2018-04-12T04:39:51.756Z,86.30
2018-04-12T04:40:25.024Z,86.30
2018-04-12T04:40:58.300Z,86.50
2018-04-12T04:41:31.573Z,86.80
2018-04-12T04:42:04.857Z,87.00
2018-04-12T04:42:38.132Z,87.00
2018-04-12T04:43:11.416Z,86.90
2018-04-12T04:43:44.697Z,87.10
2018-04-12T04:44:17.972Z,87.10
2018-04-12T04:44:51.280Z,86.60
2018-04-12T04:45:24.578Z,86.90
2018-04-12T04:45:57.856Z,86.40
2018-04-12T04:46:31.140Z,86.10
2018-04-12T04:47:04.460Z,87.00
2018-04-12T04:47:37.732Z,86.20
2018-04-12T04:48:11.016Z,86.20
2018-04-12T04:48:44.309Z,86.10
2018-04-12T04:49:17.576Z,85.30
2018-04-12T04:49:50.847Z,85.80
2018-04-12T04:50:24.140Z,85.90
2018-04-12T04:50:57.412Z,86.00
2018-04-12T04:51:30.694Z,85.60
2018-04-12T04:52:03.979Z,85.70
2018-04-12T04:52:37.248Z,85.40
2018-04-12T04:53:10.529Z,85.40
2018-04-12T04:53:43.817Z,85.70
2018-04-12T04:54:17.102Z,85.90
2018-04-12T04:54:50.387Z,85.80
2018-04-12T04:55:23.677Z,85.80
2018-04-12T04:55:56.959Z,86.00
2018-04-12T04:56:30.228Z,85.70
2018-04-12T04:57:03.499Z,85.30
2018-04-12T04:57:36.780Z,85.50
2018-04-12T04:58:10.060Z,85.10
2018-04-12T04:58:43.343Z,85.50
2018-04-12T04:59:16.619Z,85.40
2018-04-12T04:59:50.012Z,85.20
2018-04-12T05:00:23.297Z,85.20
2018-04-12T05:00:56.573Z,85.60
2018-04-12T05:01:29.893Z,85.60
2018-04-12T05:02:03.108Z,85.90
2018-04-12T05:02:37.144Z,86.50
2018-04-12T05:03:10.424Z,86.50
2018-04-12T05:03:43.696Z,87.00
2018-04-12T05:04:16.964Z,86.70
2018-04-12T05:04:50.244Z,86.80
2018-04-12T05:05:23.529Z,86.70
2018-04-12T05:05:56.844Z,86.60
2018-04-12T05:06:30.118Z,86.60
2018-04-12T05:07:03.401Z,86.50
2018-04-12T05:07:36.704Z,86.20
2018-04-12T05:08:09.981Z,86.20
2018-04-12T05:08:43.256Z,86.40
2018-04-12T05:09:16.537Z,86.00
2018-04-12T05:09:49.824Z,86.10
2018-04-12T05:10:23.107Z,85.80
2018-04-12T05:10:56.399Z,86.10
2018-04-12T05:11:30.452Z,86.00
2018-04-12T05:12:03.720Z,86.00
2018-04-12T05:12:37.004Z,85.70
2018-04-12T05:13:10.272Z,86.00
2018-04-12T05:13:43.540Z,85.70
2018-04-12T05:14:16.825Z,86.00
2018-04-12T05:14:50.117Z,85.90
2018-04-12T05:15:23.405Z,85.80
2018-04-12T05:15:56.708Z,85.90
2018-04-12T05:16:29.991Z,85.80
2018-04-12T05:17:03.278Z,85.90
2018-04-12T05:17:36.572Z,85.80
2018-04-12T05:18:10.621Z,86.00
2018-04-12T05:18:43.898Z,85.60
2018-04-12T05:19:17.177Z,85.50
2018-04-12T05:19:50.465Z,85.20
2018-04-12T05:20:23.737Z,84.70
2018-04-12T05:20:57.019Z,84.80
2018-04-12T05:21:30.291Z,84.60
2018-04-12T05:22:03.605Z,84.70
2018-04-12T05:22:36.880Z,84.80
2018-04-12T05:23:10.178Z,85.30
2018-04-12T05:23:43.473Z,84.70
2018-04-12T05:24:16.738Z,84.50
2018-04-12T05:24:50.018Z,84.60
2018-04-12T05:25:23.290Z,84.80
2018-04-12T05:25:56.581Z,84.40
2018-04-12T05:26:29.865Z,84.30
2018-04-12T05:27:03.134Z,83.80
2018-04-12T05:27:36.408Z,84.00
2018-04-12T05:28:10.439Z,83.90
2018-04-12T05:28:44.477Z,84.00
2018-04-12T05:29:17.755Z,83.90
2018-04-12T05:29:51.048Z,83.80
2018-04-12T05:30:24.318Z,83.40
2018-04-12T05:30:57.618Z,84.10
2018-04-12T05:31:30.893Z,83.80
2018-04-12T05:32:04.948Z,83.80
2018-04-12T05:32:38.997Z,83.50
2018-04-12T05:33:12.269Z,83.50
2018-04-12T05:33:45.556Z,83.30
2018-04-12T05:34:18.829Z,83.60
2018-04-12T05:34:52.888Z,83.80
2018-04-12T05:35:26.909Z,83.80
2018-04-12T05:36:00.207Z,83.80
2018-04-12T05:36:33.485Z,83.30
2018-04-12T05:37:06.754Z,83.20
2018-04-12T05:37:40.028Z,83.40
2018-04-12T05:38:13.292Z,83.40
2018-04-12T05:38:46.563Z,83.30
2018-04-12T05:39:19.842Z,83.00
2018-04-12T05:39:53.143Z,83.30
2018-04-12T05:40:26.452Z,83.30
2018-04-12T05:40:59.744Z,82.60
2018-04-12T05:41:33.020Z,82.30
2018-04-12T05:42:07.067Z,82.20
2018-04-12T05:42:41.112Z,82.10
2018-04-12T05:43:14.392Z,82.00
2018-04-12T05:43:47.669Z,82.20
2018-04-12T05:44:20.950Z,81.90
2018-04-12T05:44:54.999Z,82.60
2018-04-12T05:45:29.245Z,81.90
2018-04-12T05:46:02.533Z,81.90
2018-04-12T05:46:35.834Z,81.60
2018-04-12T05:47:09.116Z,81.90
2018-04-12T05:47:42.406Z,81.90
2018-04-12T05:48:15.673Z,82.00
2018-04-12T05:48:48.952Z,82.30
2018-04-12T05:49:22.241Z,83.20
2018-04-12T05:49:55.518Z,83.80
2018-04-12T05:50:28.793Z,82.70
2018-04-12T05:51:02.068Z,82.80
2018-04-12T05:51:35.361Z,82.70
2018-04-12T05:52:08.661Z,82.30
2018-04-12T05:52:42.708Z,82.60
2018-04-12T05:53:15.972Z,82.40
2018-04-12T05:53:49.252Z,82.60
2018-04-12T05:54:22.525Z,82.60
2018-04-12T05:54:55.820Z,82.70
2018-04-12T05:55:29.097Z,82.70
2018-04-12T05:56:02.368Z,82.00
2018-04-12T05:56:35.647Z,81.70
2018-04-12T05:57:08.917Z,81.90
2018-04-12T05:57:42.199Z,81.70
2018-04-12T05:58:15.476Z,81.60
2018-04-12T05:58:48.746Z,81.70
2018-04-12T05:59:22.784Z,81.50
2018-04-12T05:59:56.063Z,81.50
2018-04-12T06:00:29.340Z,81.60
2018-04-12T06:01:02.608Z,81.50
2018-04-12T06:01:35.891Z,81.70
2018-04-12T06:02:09.164Z,82.00
2018-04-12T06:02:42.441Z,81.90
2018-04-12T06:03:15.729Z,81.80
2018-04-12T06:03:49.006Z,81.50
2018-04-12T06:04:22.281Z,81.10
2018-04-12T06:04:55.579Z,81.10
2018-04-12T06:05:28.835Z,80.60
2018-04-12T06:06:02.112Z,80.80
2018-04-12T06:06:35.397Z,80.60
2018-04-12T06:07:08.689Z,80.80
2018-04-12T06:07:41.982Z,80.80
2018-04-12T06:08:15.251Z,80.80
2018-04-12T06:08:48.522Z,80.90
2018-04-12T06:09:21.797Z,81.10
2018-04-12T06:09:55.065Z,81.20
2018-04-12T06:10:28.354Z,81.00
2018-04-12T06:11:02.416Z,81.00
2018-04-12T06:11:36.468Z,81.20
2018-04-12T06:12:09.764Z,81.20
2018-04-12T06:12:43.055Z,81.10
2018-04-12T06:13:16.320Z,80.80
2018-04-12T06:13:49.603Z,80.90
2018-04-12T06:14:22.881Z,80.90
2018-04-12T06:14:56.155Z,81.10
2018-04-12T06:15:29.421Z,80.40
2018-04-12T06:16:02.699Z,80.90
2018-04-12T06:16:35.983Z,81.20
2018-04-12T06:17:09.292Z,81.30
2018-04-12T06:17:42.560Z,81.10
2018-04-12T06:18:15.833Z,80.90
2018-04-12T06:18:49.122Z,80.90
2018-04-12T06:19:22.417Z,81.10
2018-04-12T06:19:55.701Z,80.50
2018-04-12T06:20:29.035Z,80.70
2018-04-12T06:21:02.248Z,82.20
2018-04-12T06:21:35.512Z,81.20
2018-04-12T06:22:08.797Z,81.50
2018-04-12T06:22:42.068Z,80.80
2018-04-12T06:23:15.348Z,80.30
2018-04-12T06:23:48.632Z,80.60
2018-04-12T06:24:21.908Z,80.60
2018-04-12T06:24:55.528Z,80.10
2018-04-12T06:25:29.121Z,80.20
2018-04-12T06:26:02.412Z,80.10
2018-04-12T06:26:35.689Z,79.80
2018-04-12T06:27:08.995Z,80.10
2018-04-12T06:27:43.047Z,80.50
2018-04-12T06:28:16.334Z,80.40
2018-04-12T06:28:49.603Z,80.50
2018-04-12T06:29:22.876Z,79.90
2018-04-12T06:29:56.169Z,80.50
2018-04-12T06:30:29.432Z,80.60
2018-04-12T06:31:02.712Z,80.60
2018-04-12T06:31:35.990Z,80.60
2018-04-12T06:32:09.276Z,80.60
2018-04-12T06:32:42.547Z,80.70
2018-04-12T06:33:15.828Z,80.40
2018-04-12T06:33:49.133Z,80.10
2018-04-12T06:34:22.360Z,81.10
2018-04-12T06:34:56.399Z,80.20
2018-04-12T06:35:29.692Z,80.10
2018-04-12T06:36:02.976Z,80.70
2018-04-12T06:36:36.235Z,80.80
2018-04-12T06:37:09.524Z,80.20
2018-04-12T06:37:42.816Z,80.10
2018-04-12T06:38:16.865Z,80.60
2018-04-12T06:38:50.149Z,80.50
2018-04-12T06:39:23.421Z,80.60
2018-04-12T06:39:57.460Z,80.30
2018-04-12T06:40:30.735Z,80.30
2018-04-12T06:41:03.996Z,80.30
2018-04-12T06:41:37.255Z,80.20
2018-04-12T06:42:10.553Z,80.50
2018-04-12T06:42:43.843Z,80.30
2018-04-12T06:43:17.120Z,80.40
2018-04-12T06:43:50.406Z,80.10
2018-04-12T06:44:23.676Z,80.30
2018-04-12T06:44:56.947Z,80.30
2018-04-12T06:45:30.218Z,79.90
2018-04-12T06:46:04.253Z,80.10
2018-04-12T06:46:37.574Z,80.90
2018-04-12T06:47:11.072Z,80.10
2018-04-12T06:47:44.378Z,80.10
2018-04-12T06:48:17.647Z,79.90
2018-04-12T06:48:50.931Z,79.70
2018-04-12T06:49:24.204Z,79.70
2018-04-12T06:49:57.500Z,78.80
2018-04-12T06:50:30.786Z,79.20
2018-04-12T06:51:04.056Z,79.50
2018-04-12T06:51:37.332Z,79.40
2018-04-12T06:52:10.589Z,79.40
2018-04-12T06:52:44.621Z,79.00
2018-04-12T06:53:17.917Z,79.00
2018-04-12T06:53:51.187Z,79.70
2018-04-12T06:54:24.461Z,78.90
2018-04-12T06:54:57.736Z,79.20
2018-04-12T06:55:31.027Z,79.60
2018-04-12T06:56:04.311Z,78.80
2018-04-12T06:56:37.576Z,78.40
2018-04-12T06:57:10.849Z,79.20
2018-04-12T06:57:44.128Z,79.20
2018-04-12T06:58:17.391Z,79.10
2018-04-12T06:58:51.440Z,79.00
2018-04-12T06:59:24.732Z,79.00
2018-04-12T06:59:58.013Z,79.50
2018-04-12T07:00:31.292Z,79.30
2018-04-12T07:01:04.589Z,79.20
2018-04-12T07:01:37.889Z,79.40
2018-04-12T07:02:11.929Z,78.90
2018-04-12T07:02:45.204Z,78.80
2018-04-12T07:03:18.494Z,79.40
2018-04-12T07:03:51.783Z,79.10
2018-04-12T07:04:25.060Z,78.90
2018-04-12T07:04:58.321Z,78.30
2018-04-12T07:05:31.603Z,78.10
2018-04-12T07:06:04.884Z,77.90
2018-04-12T07:06:38.169Z,78.50
2018-04-12T07:07:11.420Z,77.90
2018-04-12T07:07:44.689Z,77.50
2018-04-12T07:08:18.729Z,78.00
2018-04-12T07:08:52.105Z,77.90
2018-04-12T07:09:25.380Z,78.20
2018-04-12T07:09:58.659Z,77.50
2018-04-12T07:10:31.936Z,77.20
2018-04-12T07:11:05.221Z,77.60
2018-04-12T07:11:38.488Z,77.50